Time;durP1;ratioP1;P1;durP2;ratioP2;P2;SDS_P1;SDS_P2;PMS_P1;PMS_P2;Temp;Humidity;BMP_temperature;BMP_pressure;BME280_temperature;BME280_humidity;BME280_pressure;Samples;Min_cycle;Max_cycle;Signal;HPM_P1;HPM_P2
2023/05/30 00:01:35;;;;;;;22.17;4.53;;;;;;;;;;5108540;28;20502;-77
2023/05/30 00:04:01;;;;;;;13.07;4.38;;;;;;;;;;5075422;27;20469;-77
2023/05/30 00:06:28;;;;;;;14.85;4.40;;;;;;;;;;5082597;28;20424;-77
2023/05/30 00:08:54;;;;;;;17.90;4.90;;;;;;;;;;5100104;28;20436;-77
2023/05/30 00:11:23;;;;;;;12.90;3.92;;;;;;;;;;5078766;27;20902;-77
2023/05/30 00:13:50;;;;;;;10.57;3.92;;;11.50;99.90;;;;;;5081201;28;20412;-77
2023/05/30 00:16:19;;;;;;;12.68;3.70;;;;;;;;;;5093249;28;20392;-77
2023/05/30 00:18:45;;;;;;;10.68;3.95;;;;;;;;;;5094602;28;20429;-77
2023/05/30 00:21:11;;;;;;;12.50;4.10;;;;;;;;;;5076179;28;20420;-77
2023/05/30 00:23:39;;;;;;;13.23;4.10;;;11.70;99.90;;;;;;5111590;27;20923;-77
2023/05/30 00:26:08;;;;;;;14.25;4.05;;;;;;;;;;5086091;28;20760;-77
2023/05/30 00:28:34;;;;;;;11.48;4.10;;;;;;;;;;5100598;28;20421;-78
2023/05/30 00:31:00;;;;;;;12.85;4.43;;;11.60;99.90;;;;;;5097819;28;20422;-77
2023/05/30 00:33:26;;;;;;;11.00;3.90;;;;;;;;;;5096857;28;20418;-77
2023/05/30 00:35:52;;;;;;;12.23;4.20;;;;;;;;;;5110764;28;20410;-77
2023/05/30 00:38:18;;;;;;;14.40;4.78;;;;;;;;;;5108448;28;20400;-77
2023/05/30 00:40:45;;;;;;;12.07;4.90;;;;;;;;;;5091828;27;20414;-77
2023/05/30 00:43:11;;;;;;;15.13;4.27;;;;;;;;;;5111672;28;20415;-77
2023/05/30 00:45:37;;;;;;;12.43;4.38;;;;;;;;;;5104040;28;20411;-77
2023/05/30 00:48:05;;;;;;;13.50;4.70;;;11.50;99.90;;;;;;5095485;28;20483;-77
2023/05/30 00:50:32;;;;;;;13.82;4.80;;;11.50;99.90;;;;;;5090340;28;20556;-78
2023/05/30 00:52:59;;;;;;;14.93;4.70;;;;;;;;;;5092940;28;20408;-77
2023/05/30 00:55:27;;;;;;;12.25;4.40;;;11.60;99.90;;;;;;5093686;28;20404;-77
2023/05/30 00:57:53;;;;;;;11.85;4.30;;;;;;;;;;5093724;28;20400;-76
2023/05/30 01:00:19;;;;;;;11.30;4.10;;;;;;;;;;5076914;28;20399;-77
2023/05/30 01:02:46;;;;;;;13.50;4.55;;;;;;;;;;5112203;28;20435;-77
2023/05/30 01:05:14;;;;;;;14.02;4.40;;;;;;;;;;5127026;28;20418;-77
2023/05/30 01:07:43;;;;;;;12.00;4.20;;;;;;;;;;5080499;28;20440;-77
2023/05/30 01:10:13;;;;;;;8.85;3.72;;;;;;;;;;5077341;28;20415;-78
2023/05/30 01:12:59;;;;;;;13.07;4.40;;;;;;;;;;5077526;28;20423;-78
2023/05/30 01:15:51;;;;;;;12.73;4.72;;;11.40;99.90;;;;;;5099791;27;20420;-77
2023/05/30 01:18:24;;;;;;;10.98;3.75;;;;;;;;;;5046025;27;20750;-77
2023/05/30 01:20:54;;;;;;;16.70;4.70;;;11.40;99.90;;;;;;5109414;27;20467;-77
2023/05/30 01:23:52;;;;;;;12.65;4.20;;;11.50;99.90;;;;;;5108735;27;20439;-77
2023/05/30 01:26:18;;;;;;;14.73;4.10;;;;;;;;;;5097743;27;20416;-78
2023/05/30 01:28:45;;;;;;;11.77;3.95;;;;;;;;;;5103519;27;20493;-77
2023/05/30 01:31:11;;;;;;;12.40;4.50;;;;;;;;;;5099214;27;20410;-78
2023/05/30 01:33:37;;;;;;;16.27;5.50;;;;;;;;;;5116475;27;20412;-78
2023/05/30 01:36:04;;;;;;;11.48;4.15;;;;;;;;;;5100548;28;20416;-78
2023/05/30 01:38:30;;;;;;;11.73;4.38;;;;;;;;;;5092301;27;20430;-77
2023/05/30 01:40:58;;;;;;;14.80;4.55;;;11.00;99.90;;;;;;5098578;28;20415;-78
2023/05/30 01:43:28;;;;;;;11.02;4.50;;;;;;;;;;5080229;28;20459;-78
2023/05/30 01:46:09;;;;;;;14.93;4.20;;;11.70;99.90;;;;;;5096559;27;20416;-77
2023/05/30 01:48:41;;;;;;;11.25;4.05;;;;;;;;;;5104376;27;20742;-78
2023/05/30 01:51:14;;;;;;;10.33;4.13;;;11.30;99.90;;;;;;5106430;28;20415;-78
2023/05/30 01:53:44;;;;;;;13.32;4.40;;;11.50;99.90;;;;;;5096120;28;20912;-76
2023/05/30 01:56:12;;;;;;;14.48;4.47;;;;;;;;;;5097394;27;20413;-76
2023/05/30 01:58:39;;;;;;;15.73;4.40;;;;;;;;;;5100000;27;20478;-77
2023/05/30 02:01:07;;;;;;;10.47;4.10;;;11.60;99.90;;;;;;5106244;27;20944;-77
2023/05/30 02:03:34;;;;;;;12.93;4.72;;;;;;;;;;5083001;28;20412;-77
2023/05/30 02:06:00;;;;;;;12.30;4.40;;;;;;;;;;5078639;28;20424;-76
2023/05/30 02:08:27;;;;;;;10.07;4.03;;;11.30;99.90;;;;;;5104563;27;20415;-77
2023/05/30 02:10:53;;;;;;;12.65;4.10;;;;;;;;;;5097526;27;20414;-77
2023/05/30 02:13:19;;;;;;;13.55;4.32;;;;;;;;;;5087118;28;20428;-76
2023/05/30 02:15:45;;;;;;;11.77;4.23;;;;;;;;;;5079653;28;20404;-77
2023/05/30 02:18:12;;;;;;;16.83;4.40;;;;;;;;;;5093637;27;20546;-77
2023/05/30 02:20:39;;;;;;;13.77;4.70;;;;;;;;;;5100591;28;20455;-76
2023/05/30 02:23:05;;;;;;;15.63;4.65;;;;;;;;;;5096072;28;20485;-77
2023/05/30 02:25:31;;;;;;;13.20;4.60;;;;;;;;;;5082959;27;20442;-76
2023/05/30 02:27:57;;;;;;;12.40;4.20;;;;;;;;;;5100287;28;20947;-76
2023/05/30 02:30:23;;;;;;;12.50;4.70;;;;;;;;;;5062986;28;20419;-76
2023/05/30 02:32:49;;;;;;;14.07;5.03;;;;;;;;;;5097692;27;20402;-77
2023/05/30 02:35:15;;;;;;;15.40;4.85;;;;;;;;;;5110686;27;20406;-78
2023/05/30 02:37:41;;;;;;;14.55;4.90;;;;;;;;;;5101386;27;20511;-77
2023/05/30 02:40:10;;;;;;;12.20;4.47;;;11.10;99.90;;;;;;5079347;28;20451;-78
2023/05/30 02:42:37;;;;;;;12.82;5.13;;;;;;;;;;5108228;27;20429;-77
2023/05/30 02:45:03;;;;;;;12.13;4.70;;;;;;;;;;5088175;28;20416;-77
2023/05/30 02:47:29;;;;;;;8.63;4.10;;;;;;;;;;5101888;27;20410;-78
2023/05/30 02:49:55;;;;;;;15.98;4.78;;;;;;;;;;5115584;27;20398;-78
2023/05/30 02:52:22;;;;;;;12.55;4.63;;;;;;;;;;5094111;27;20396;-78
2023/05/30 02:54:51;;;;;;;16.23;5.20;;;;;;;;;;5095302;28;20424;-78
2023/05/30 02:57:19;;;;;;;16.20;5.13;;;11.40;99.90;;;;;;5103935;27;20422;-78
2023/05/30 02:59:45;;;;;;;13.48;4.75;;;;;;;;;;5108057;27;20411;-78
2023/05/30 03:02:11;;;;;;;14.95;4.88;;;;;;;;;;5075934;27;20422;-77
2023/05/30 03:04:37;;;;;;;14.15;4.80;;;;;;;;;;5111147;27;20410;-78
2023/05/30 03:07:05;;;;;;;17.27;5.40;;;;;;;;;;5115498;27;20850;-78
2023/05/30 03:09:31;;;;;;;15.35;5.55;;;;;;;;;;5111734;27;20448;-77
2023/05/30 03:11:57;;;;;;;17.10;5.13;;;;;;;;;;5107476;28;20412;-78
2023/05/30 03:14:23;;;;;;;11.73;4.95;;;;;;;;;;5077641;28;20505;-78
2023/05/30 03:16:49;;;;;;;15.57;5.43;;;;;;;;;;5093842;27;20469;-77
2023/05/30 03:19:15;;;;;;;12.75;5.47;;;;;;;;;;5096094;28;20459;-76
2023/05/30 03:21:42;;;;;;;14.68;5.35;;;;;;;;;;5108731;28;20412;-78
2023/05/30 03:24:08;;;;;;;13.00;5.30;;;;;;;;;;5078969;27;20468;-78
2023/05/30 03:26:34;;;;;;;14.00;5.33;;;11.10;99.90;;;;;;5115713;27;20846;-77
2023/05/30 03:29:01;;;;;;;15.18;5.28;;;;;;;;;;5105538;27;20470;-77
2023/05/30 03:31:29;;;;;;;13.60;5.40;;;;;;;;;;5079158;28;20420;-77
2023/05/30 03:33:55;;;;;;;13.17;5.33;;;;;;;;;;5089852;28;20502;-77
2023/05/30 03:36:21;;;;;;;14.60;5.05;;;;;;;;;;5110153;27;20493;-76
2023/05/30 03:38:47;;;;;;;12.25;5.30;;;;;;;;;;5115403;27;20410;-76
2023/05/30 03:41:13;;;;;;;17.47;5.00;;;;;;;;;;5106294;28;20423;-77
2023/05/30 03:43:39;;;;;;;15.20;5.28;;;;;;;;;;5081293;28;20424;-76
2023/05/30 03:46:05;;;;;;;13.15;5.10;;;;;;;;;;5092917;27;20584;-77
2023/05/30 03:48:31;;;;;;;14.85;4.90;;;;;;;;;;5096977;27;20498;-76
2023/05/30 03:50:58;;;;;;;15.17;5.03;;;;;;;;;;5111124;27;20777;-77
2023/05/30 03:53:24;;;;;;;16.58;5.05;;;;;;;;;;5108040;28;20412;-77
2023/05/30 03:55:50;;;;;;;17.00;5.67;;;;;;;;;;5094687;28;20405;-77
2023/05/30 03:58:16;;;;;;;13.43;5.30;;;;;;;;;;5099740;28;20439;-78
2023/05/30 04:00:42;;;;;;;14.77;5.32;;;;;;;;;;5079117;27;20446;-77
2023/05/30 04:03:08;;;;;;;12.07;5.00;;;;;;;;;;5114827;27;20402;-78
2023/05/30 04:05:34;;;;;;;16.65;5.43;;;;;;;;;;5081332;27;20406;-78
2023/05/30 04:08:02;;;;;;;13.25;5.40;;;;;;;;;;5108532;28;20479;-77
2023/05/30 04:10:28;;;;;;;13.73;5.22;;;;;;;;;;5094646;28;20495;-78
2023/05/30 04:12:54;;;;;;;18.23;5.68;;;;;;;;;;5073763;28;20941;-77
2023/05/30 04:15:20;;;;;;;13.68;5.47;;;;;;;;;;5092895;28;20420;-77
2023/05/30 04:17:47;;;;;;;15.48;5.28;;;;;;;;;;5090860;28;20463;-77
2023/05/30 04:20:13;;;;;;;13.50;5.43;;;;;;;;;;5083923;28;20455;-78
2023/05/30 04:22:39;;;;;;;15.85;5.68;;;;;;;;;;5109522;28;20412;-77
2023/05/30 04:25:05;;;;;;;13.75;5.10;;;;;;;;;;5079190;28;20920;-76
2023/05/30 04:27:32;;;;;;;14.07;5.20;;;;;;;;;;5094092;28;20445;-77
2023/05/30 04:30:03;;;;;;;15.00;5.65;;;;;;;;;;5089782;28;20536;-77
2023/05/30 04:32:33;;;;;;;14.17;5.80;;;;;;;;;;5093276;28;20427;-78
2023/05/30 04:35:00;;;;;;;14.93;5.72;;;;;;;;;;5073588;28;20394;-78
2023/05/30 04:37:27;;;;;;;15.15;5.75;;;;;;;;;;5077030;28;20413;-78
2023/05/30 04:39:55;;;;;;;13.77;5.63;;;;;;;;;;5073162;28;20425;-78
2023/05/30 04:42:23;;;;;;;18.48;6.03;;;;;;;;;;5102835;28;20431;-77
2023/05/30 04:44:49;;;;;;;16.67;5.72;;;11.70;99.90;;;;;;5089500;28;20841;-78
2023/05/30 04:47:16;;;;;;;11.90;5.60;;;;;;;;;;5080467;28;20543;-77
2023/05/30 04:49:42;;;;;;;14.85;5.35;;;;;;;;;;5070712;28;20470;-78
2023/05/30 04:52:09;;;;;;;13.50;5.10;;;;;;;;;;5079461;28;20956;-77
2023/05/30 04:54:35;;;;;;;17.52;5.22;;;;;;;;;;5094618;28;20435;-77
2023/05/30 04:57:02;;;;;;;15.27;5.75;;;;;;;;;;5083350;28;20491;-78
2023/05/30 04:59:28;;;;;;;14.10;5.47;;;;;;;;;;5098430;28;20910;-78
2023/05/30 05:01:54;;;;;;;14.18;4.97;;;;;;;;;;5094241;28;20413;-78
2023/05/30 05:04:20;;;;;;;16.10;5.28;;;;;;;;;;5094812;28;20397;-78
2023/05/30 05:06:46;;;;;;;16.27;5.50;;;;;;;;;;5086682;28;20431;-77
2023/05/30 05:09:13;;;;;;;19.70;5.97;;;;;;;;;;5074252;28;20433;-77
2023/05/30 05:11:39;;;;;;;15.43;4.80;;;;;;;;;;5059773;28;20429;-77
2023/05/30 05:14:05;;;;;;;18.83;5.85;;;;;;;;;;5074735;28;20407;-77
2023/05/30 05:16:31;;;;;;;18.27;5.53;;;;;;;;;;5084442;28;20479;-77
2023/05/30 05:18:57;;;;;;;19.60;5.70;;;;;;;;;;5066663;28;20437;-78
2023/05/30 05:21:23;;;;;;;11.95;5.05;;;;;;;;;;5070617;28;20450;-77
2023/05/30 05:23:50;;;;;;;15.00;4.93;;;;;;;;;;5074181;28;20448;-76
2023/05/30 05:26:17;;;;;;;14.60;5.47;;;;;;;;;;5056920;28;20514;-76
2023/05/30 05:28:43;;;;;;;14.45;4.88;;;;;;;;;;5064365;28;20414;-77
2023/05/30 05:31:09;;;;;;;13.90;4.97;;;;;;;;;;5076738;28;20493;-76
2023/05/30 05:33:35;;;;;;;13.65;4.80;;;;;;;;;;5092577;28;20414;-76
2023/05/30 05:36:02;;;;;;;12.23;4.65;;;;;;;;;;5073226;28;20906;-77
2023/05/30 05:38:29;;;;;;;13.83;4.57;;;;;;;;;;5078761;28;20422;-77
2023/05/30 05:40:55;;;;;;;13.68;4.65;;;;;;;;;;5076792;28;20428;-76
2023/05/30 05:43:21;;;;;;;15.73;4.68;;;;;;;;;;5056484;28;20799;-76
2023/05/30 05:45:46;;;;;;;12.88;4.43;;;12.00;99.90;;;;;;5062506;28;20486;-76
2023/05/30 05:48:12;;;;;;;12.80;4.15;;;;;;;;;;5058874;28;20419;-77
2023/05/30 05:50:39;;;;;;;10.82;4.22;;;;;;;;;;5078174;28;20817;-76
2023/05/30 05:53:05;;;;;;;11.32;4.03;;;;;;;;;;5072028;28;20408;-76
2023/05/30 05:55:31;;;;;;;13.77;4.47;;;;;;;;;;5065780;28;20418;-76
2023/05/30 05:57:57;;;;;;;11.17;3.87;;;;;;;;;;5086851;28;20462;-76
2023/05/30 06:00:23;;;;;;;11.05;3.95;;;;;;;;;;5075516;28;20461;-76
2023/05/30 06:02:49;;;;;;;10.65;4.00;;;;;;;;;;5073045;28;20480;-77
2023/05/30 06:05:15;;;;;;;13.03;4.53;;;;;;;;;;5055097;28;20433;-77
2023/05/30 06:07:41;;;;;;;10.95;4.03;;;;;;;;;;5101370;28;20889;-76
2023/05/30 06:10:08;;;;;;;12.02;4.10;;;;;;;;;;5106865;28;20524;-76
2023/05/30 06:12:34;;;;;;;8.98;3.20;;;;;;;;;;5102496;27;20781;-76
2023/05/30 06:15:00;;;;;;;10.85;3.80;;;;;;;;;;5093142;28;20416;-77
2023/05/30 06:17:26;;;;;;;9.05;3.60;;;;;;;;;;5099851;28;20527;-77
2023/05/30 06:19:52;;;;;;;10.23;4.10;;;;;;;;;;5097671;28;20428;-75
2023/05/30 06:22:19;;;;;;;10.48;3.55;;;;;;;;;;5104354;28;20788;-76
2023/05/30 06:24:46;;;;;;;10.00;3.22;;;;;;;;;;5099459;28;20416;-77
2023/05/30 06:27:12;;;;;;;9.13;3.63;;;;;;;;;;5093866;28;20554;-77
2023/05/30 06:29:39;;;;;;;10.18;3.20;;;;;;;;;;5080163;28;20416;-77
2023/05/30 06:32:05;;;;;;;9.10;3.22;;;;;;;;;;5092086;28;20411;-77
2023/05/30 06:34:31;;;;;;;9.95;3.45;;;;;;;;;;5092347;28;20413;-77
2023/05/30 06:36:57;;;;;;;10.47;4.10;;;;;;;;;;5090336;28;20421;-78
2023/05/30 06:39:23;;;;;;;12.35;3.92;;;;;;;;;;5091364;28;20414;-78
2023/05/30 06:41:49;;;;;;;8.30;3.40;;;;;;;;;;5108621;28;20495;-78
2023/05/30 06:44:16;;;;;;;9.52;3.58;;;;;;;;;;5075158;28;20479;-77
2023/05/30 06:46:42;;;;;;;9.60;3.55;;;;;;;;;;5083377;28;20416;-78
2023/05/30 06:49:08;;;;;;;9.43;3.40;;;;;;;;;;5087340;28;20447;-78
2023/05/30 06:51:35;;;;;;;8.60;3.20;;;;;;;;;;5086482;28;20412;-78
2023/05/30 06:54:01;;;;;;;7.93;3.30;;;;;;;;;;5075154;28;20401;-77
2023/05/30 06:56:27;;;;;;;9.40;3.40;;;;;;;;;;5091561;28;20439;-78
2023/05/30 06:58:54;;;;;;;8.10;3.35;;;12.20;99.90;;;;;;5089129;28;20915;-77
2023/05/30 07:01:20;;;;;;;6.60;3.17;;;;;;;;;;5076844;28;20872;-78
2023/05/30 07:03:47;;;;;;;11.43;3.55;;;;;;;;;;5091216;28;20423;-78
2023/05/30 07:06:13;;;;;;;7.80;3.58;;;;;;;;;;5105196;27;20483;-77
2023/05/30 07:08:39;;;;;;;9.00;3.40;;;;;;;;;;5093264;27;20839;-77
2023/05/30 07:11:08;;;;;;;10.80;3.10;;;;;;;;;;5069788;27;20420;-77
2023/05/30 07:13:34;;;;;;;7.88;3.28;;;;;;;;;;5079255;27;20427;-77
2023/05/30 07:16:00;;;;;;;9.88;3.55;;;;;;;;;;5108152;28;20507;-77
2023/05/30 07:18:26;;;;;;;9.43;3.72;;;;;;;;;;5103443;27;20406;-77
2023/05/30 07:20:52;;;;;;;9.43;3.38;;;;;;;;;;5108049;27;20498;-78
2023/05/30 07:23:18;;;;;;;8.18;3.50;;;;;;;;;;5103225;27;20936;-77
2023/05/30 07:25:44;;;;;;;8.30;3.35;;;;;;;;;;5107392;27;20428;-77
2023/05/30 07:28:11;;;;;;;12.40;3.30;;;;;;;;;;5086751;28;20427;-78
2023/05/30 07:30:37;;;;;;;8.55;3.40;;;12.70;99.90;;;;;;5094466;28;20408;-77
2023/05/30 07:33:03;;;;;;;11.70;3.10;;;;;;;;;;5104252;27;20421;-77
2023/05/30 07:35:29;;;;;;;8.85;3.20;;;;;;;;;;5093388;28;20764;-77
2023/05/30 07:37:55;;;;;;;5.38;2.72;;;;;;;;;;5100442;27;20418;-77
2023/05/30 07:40:21;;;;;;;8.40;2.80;;;;;;;;;;5100280;27;20588;-77
2023/05/30 07:42:47;;;;;;;8.00;2.78;;;;;;;;;;5099906;28;21002;-77
2023/05/30 07:45:14;;;;;;;7.00;2.67;;;;;;;;;;5078280;27;20412;-78
2023/05/30 07:47:40;;;;;;;7.53;2.70;;;;;;;;;;5095652;28;20503;-79
2023/05/30 07:50:07;;;;;;;7.90;2.80;;;;;;;;;;5095188;27;20418;-77
2023/05/30 07:52:33;;;;;;;7.60;2.90;;;;;;;;;;5084614;27;20410;-77
2023/05/30 07:54:59;;;;;;;7.22;2.85;;;;;;;;;;5084925;27;20417;-76
2023/05/30 07:57:25;;;;;;;7.90;2.90;;;12.90;99.90;;;;;;5079036;27;20416;-77
2023/05/30 07:59:51;;;;;;;8.45;3.15;;;;;;;;;;5076990;27;21038;-77
2023/05/30 08:02:18;;;;;;;9.80;3.00;;;12.80;99.90;;;;;;5102301;27;20477;-76
2023/05/30 08:04:44;;;;;;;7.80;3.08;;;;;;;;;;5098102;27;20402;-77
2023/05/30 08:07:10;;;;;;;8.85;3.20;;;;;;;;;;5108987;27;20491;-76
2023/05/30 08:09:37;;;;;;;6.97;2.90;;;;;;;;;;5094255;28;20421;-77
2023/05/30 08:12:05;;;;;;;7.63;2.75;;;12.90;99.90;;;;;;5113164;27;20743;-75
2023/05/30 08:14:31;;;;;;;9.15;2.95;;;;;;;;;;5105709;27;20505;-75
2023/05/30 08:16:57;;;;;;;8.77;3.00;;;;;;;;;;5089875;27;20417;-75
2023/05/30 08:19:24;;;;;;;6.28;2.90;;;;;;;;;;5092487;28;20412;-76
2023/05/30 08:21:50;;;;;;;5.80;2.88;;;;;;;;;;5081068;28;20412;-76
2023/05/30 08:24:16;;;;;;;8.95;3.15;;;;;;;;;;5095886;28;20453;-76
2023/05/30 08:26:42;;;;;;;4.72;2.55;;;;;;;;;;5106128;27;20425;-75
2023/05/30 08:29:08;;;;;;;6.57;2.60;;;;;;;;;;5100069;28;20489;-76
2023/05/30 08:31:34;;;;;;;8.20;3.33;;;;;;;;;;5094509;28;20428;-76
2023/05/30 08:34:04;;;;;;;5.63;2.65;;;13.60;99.90;;;;;;5097831;28;20422;-76
2023/05/30 08:36:31;;;;;;;4.75;1.92;;;;;;;;;;5100685;28;20419;-75
2023/05/30 08:38:57;;;;;;;3.50;1.40;;;13.30;99.90;;;;;;5103008;28;20424;-75
2023/05/30 08:41:23;;;;;;;3.85;1.40;;;;;;;;;;5093324;28;20505;-76
2023/05/30 08:43:52;;;;;;;2.47;1.20;;;;;;;;;;5101987;28;20431;-76
2023/05/30 08:46:18;;;;;;;2.47;1.20;;;;;;;;;;5076886;28;20428;-76
2023/05/30 08:48:45;;;;;;;3.95;1.40;;;13.30;99.90;;;;;;5093444;28;20477;-76
2023/05/30 08:51:15;;;;;;;2.42;1.50;;;13.10;99.90;;;;;;5094517;28;20403;-76
2023/05/30 08:53:49;;;;;;;2.33;1.10;;;;;;;;;;5095144;28;20424;-75
2023/05/30 08:56:22;;;;;;;2.70;1.10;;;;;;;;;;5098406;28;20435;-76
2023/05/30 08:58:51;;;;;;;2.92;1.27;;;13.60;99.90;;;;;;5093430;28;20485;-76
2023/05/30 09:01:17;;;;;;;4.05;1.10;;;;;;;;;;5091905;28;20432;-75
2023/05/30 09:03:45;;;;;;;11.73;2.05;;;14.20;99.90;;;;;;5085387;28;20422;-75
2023/05/30 09:06:12;;;;;;;7.93;1.55;;;14.60;99.90;;;;;;5105910;28;20915;-75
2023/05/30 09:08:41;;;;;;;3.05;1.30;;;14.40;99.90;;;;;;5108800;28;20434;-75
2023/05/30 09:11:07;;;;;;;4.77;1.60;;;;;;;;;;5094661;28;20414;-76
2023/05/30 09:13:36;;;;;;;3.15;1.35;;;;;;;;;;5093163;28;20408;-76
2023/05/30 09:16:02;;;;;;;3.63;1.48;;;;;;;;;;5067341;28;20510;-75
2023/05/30 09:18:30;;;;;;;2.10;1.13;;;14.10;99.90;;;;;;5103284;28;20424;-74
2023/05/30 09:20:57;;;;;;;3.33;1.17;;;14.20;99.90;;;;;;5090397;28;20524;-74
2023/05/30 09:23:23;;;;;;;2.33;1.20;;;;;;;;;;5099448;28;20474;-74
2023/05/30 09:25:51;;;;;;;2.90;1.20;;;;;;;;;;5082134;28;20439;-74
2023/05/30 09:28:24;;;;;;;4.80;1.60;;;;;;;;;;5088173;28;20801;-74
2023/05/30 09:31:00;;;;;;;3.10;1.30;;;14.50;99.90;;;;;;5091891;28;20423;-74
2023/05/30 09:33:56;;;;;;;2.90;1.10;;;14.40;99.90;;;;;;5087084;28;20414;-75
2023/05/30 09:36:26;;;;;;;3.13;1.42;;;;;;;;;;5085247;27;20408;-75
2023/05/30 09:38:57;;;;;;;2.80;1.15;;;14.60;99.90;;;;;;5099110;27;20416;-75
2023/05/30 09:41:25;;;;;;;2.45;1.30;;;14.30;99.90;;;;;;5107510;27;20762;-75
2023/05/30 09:43:55;;;;;;;2.43;1.20;;;;;;;;;;5102507;28;20422;-74
2023/05/30 09:46:25;;;;;;;3.00;1.17;;;;;;;;;;5083230;27;20422;-74
2023/05/30 09:48:51;;;;;;;1.70;1.00;;;;;;;;;;5086090;27;20414;-74
2023/05/30 09:51:17;;;;;;;2.13;0.90;;;;;;;;;;5103361;28;20409;-74
2023/05/30 09:54:13;;;;;;;1.27;0.80;;;;;;;;;;5104611;27;20494;-74
2023/05/30 09:56:50;;;;;;;2.38;0.75;;;;;;;;;;5086063;27;20926;-74
2023/05/30 09:59:16;;;;;;;2.63;0.82;;;;;;;;;;5100678;27;20417;-74
2023/05/30 10:01:46;;;;;;;1.30;0.70;;;;;;;;;;5084355;27;20539;-74
2023/05/30 10:04:22;;;;;;;2.80;0.90;;;;;;;;;;5124556;27;20459;-74
2023/05/30 10:06:51;;;;;;;2.83;0.90;;;;;;;;;;5089046;28;20421;-74
2023/05/30 10:09:20;;;;;;;2.35;0.90;;;;;;;;;;5115854;27;20412;-74
2023/05/30 10:11:46;;;;;;;1.42;1.00;;;14.60;99.90;;;;;;5089272;28;20931;-74
2023/05/30 10:14:13;;;;;;;2.08;1.10;;;14.50;99.90;;;;;;5119612;27;20423;-75
2023/05/30 10:16:53;;;;;;;4.22;1.60;;;14.50;99.90;;;;;;5096384;27;20453;-74
2023/05/30 10:19:32;;;;;;;4.13;1.58;;;14.40;99.90;;;;;;5100262;27;20399;-75
2023/05/30 10:21:58;;;;;;;2.92;1.20;;;;;;;;;;5091556;27;20480;-75
2023/05/30 10:24:25;;;;;;;2.50;1.20;;;14.60;99.90;;;;;;5099973;27;20897;-74
2023/05/30 10:26:57;;;;;;;2.22;1.10;;;14.40;99.90;;;;;;5111560;27;20776;-74
2023/05/30 10:29:28;;;;;;;3.00;1.40;;;14.70;99.90;;;;;;5100291;27;20457;-74
2023/05/30 10:31:55;;;;;;;3.50;1.10;;;;;;;;;;5080908;28;20499;-75
2023/05/30 10:34:25;;;;;;;5.03;1.40;;;;;;;;;;5098318;28;20412;-74
2023/05/30 10:36:53;;;;;;;2.72;1.30;;;;;;;;;;5099572;28;20423;-75
2023/05/30 10:39:22;;;;;;;3.17;1.25;;;;;;;;;;5108427;27;20463;-74
2023/05/30 10:42:11;;;;;;;4.03;1.50;;;;;;;;;;5088904;27;20511;-74
2023/05/30 10:44:55;;;;;;;3.30;1.27;;;14.40;99.90;;;;;;5113083;27;20419;-74
2023/05/30 10:47:48;;;;;;;3.50;1.40;;;;;;;;;;5096415;28;20750;-75
2023/05/30 10:50:22;;;;;;;3.58;1.40;;;;;;;;;;5087636;27;20407;-74
2023/05/30 10:52:47;;;;;;;4.90;1.45;;;14.70;99.90;;;;;;5107138;27;20433;-75
2023/05/30 10:55:14;;;;;;;2.28;1.20;;;14.70;99.90;;;;;;5080370;28;20414;-75
2023/05/30 10:57:41;;;;;;;3.40;1.48;;;14.80;99.90;;;;;;5104850;27;20414;-75
2023/05/30 11:00:18;;;;;;;1.90;1.15;;;14.80;99.90;;;;;;5079010;27;20459;-75
2023/05/30 11:02:49;;;;;;;3.10;1.20;;;;;;;;;;5098224;27;21002;-74
2023/05/30 11:05:31;;;;;;;2.03;1.10;;;15.00;99.90;;;;;;5081963;27;20806;-74
2023/05/30 11:07:58;;;;;;;3.58;1.30;;;;;;;;;;5099535;27;20414;-74
2023/05/30 11:10:29;;;;;;;3.20;1.30;;;;;;;;;;5100625;27;20429;-74
2023/05/30 11:13:15;;;;;;;2.38;1.17;;;15.70;99.90;;;;;;5091745;28;20483;-74
2023/05/30 11:15:47;;;;;;;5.57;1.50;;;15.70;99.90;;;;;;5094987;28;20416;-74
2023/05/30 11:18:17;;;;;;;4.93;1.40;;;15.70;99.90;;;;;;5095340;28;20434;-74
2023/05/30 11:20:56;;;;;;;2.92;1.10;;;15.60;99.90;;;;;;5078463;28;20406;-74
2023/05/30 11:23:24;;;;;;;1.75;1.20;;;15.50;99.90;;;;;;5095596;28;20400;-74
2023/05/30 11:25:52;;;;;;;3.95;1.20;;;15.40;99.90;;;;;;5094232;27;20493;-74
2023/05/30 11:28:36;;;;;;;2.22;1.20;;;15.60;99.90;;;;;;5102414;27;20773;-74
2023/05/30 11:31:16;;;;;;;1.60;1.10;;;;;;;;;;5097808;27;20490;-75
2023/05/30 11:33:43;;;;;;;2.78;1.00;;;15.70;99.90;;;;;;5098645;27;20395;-74
2023/05/30 11:36:12;;;;;;;2.13;1.00;;;15.40;99.90;;;;;;5115599;27;20402;-74
2023/05/30 11:38:45;;;;;;;2.13;1.10;;;15.40;99.90;;;;;;5090407;28;20481;-75
2023/05/30 11:41:14;;;;;;;2.80;1.30;;;15.70;99.90;;;;;;5101585;27;20410;-75
2023/05/30 11:43:42;;;;;;;2.72;1.10;;;;;;;;;;5097676;27;20843;-75
2023/05/30 11:46:08;;;;;;;2.03;1.25;;;;;;;;;;5096078;28;20495;-72
2023/05/30 11:48:34;;;;;;;3.45;1.50;;;;;;;;;;5094967;28;20399;-73
2023/05/30 11:51:00;;;;;;;3.13;1.42;;;;;;;;;;5082932;28;20420;-73
2023/05/30 11:53:26;;;;;;;2.50;1.30;;;;;;;;;;5096184;27;20412;-74
2023/05/30 11:55:52;;;;;;;2.45;1.35;;;;;;;;;;5107869;27;20410;-74
2023/05/30 11:58:19;;;;;;;4.15;1.50;;;15.70;99.90;;;;;;5113677;27;20429;-74
2023/05/30 12:00:47;;;;;;;3.85;1.60;;;;;;;;;;5096123;27;20556;-74
2023/05/30 12:03:16;;;;;;;4.80;1.40;;;;;;;;;;5105421;28;20420;-74
2023/05/30 12:05:46;;;;;;;4.13;1.50;;;15.50;99.90;;;;;;5077830;28;20396;-73
2023/05/30 12:08:19;;;;;;;3.65;1.50;;;15.80;99.90;;;;;;5077836;27;20529;-75
2023/05/30 12:10:45;;;;;;;3.60;1.60;;;15.60;99.90;;;;;;5114981;27;20441;-74
2023/05/30 12:13:11;;;;;;;2.88;1.58;;;;;;;;;;5114930;28;20436;-74
2023/05/30 12:15:37;;;;;;;2.75;1.27;;;;;;;;;;5101296;27;20418;-74
2023/05/30 12:18:04;;;;;;;3.25;1.30;;;15.70;99.90;;;;;;5114064;27;20434;-75
2023/05/30 12:20:29;;;;;;;2.50;1.40;;;16.10;99.90;;;;;;5114705;27;20398;-73
2023/05/30 12:22:55;;;;;;;3.33;1.60;;;;;;;;;;5114992;28;20400;-74
2023/05/30 12:25:26;;;;;;;1.85;1.27;;;16.10;99.90;;;;;;5097998;27;20398;-74
2023/05/30 12:27:54;;;;;;;3.35;1.30;;;16.00;99.90;;;;;;5084588;28;20502;-74
2023/05/30 12:30:21;;;;;;;2.50;1.20;;;;;;;;;;5106814;27;20414;-74
2023/05/30 12:32:46;;;;;;;2.97;1.40;;;16.00;99.90;;;;;;5114116;28;20421;-75
2023/05/30 12:35:13;;;;;;;3.30;1.65;;;15.80;99.90;;;;;;5114713;27;20394;-74
2023/05/30 12:37:39;;;;;;;2.40;1.33;;;16.50;99.90;;;;;;5114615;28;20878;-75
2023/05/30 12:40:07;;;;;;;2.97;1.40;;;16.40;99.90;;;;;;5118695;28;20412;-74
2023/05/30 12:42:36;;;;;;;2.85;1.38;;;16.70;99.90;;;;;;5095713;28;20488;-74
2023/05/30 12:45:03;;;;;;;2.38;1.42;;;;;;;;;;5106429;28;20420;-73
2023/05/30 12:47:30;;;;;;;3.22;1.50;;;;;;;;;;5073757;28;20562;-74
2023/05/30 12:49:57;;;;;;;3.13;1.40;;;16.70;99.90;;;;;;5103014;28;20420;-73
2023/05/30 12:52:27;;;;;;;3.40;1.65;;;16.80;99.90;;;;;;5105347;28;20423;-74
2023/05/30 12:54:54;;;;;;;2.13;1.38;;;;;;;;;;5075350;28;20418;-74
2023/05/30 12:57:21;;;;;;;2.10;1.52;;;;;;;;;;5095887;28;20419;-74
2023/05/30 12:59:47;;;;;;;3.08;1.40;;;;;;;;;;5089106;28;20420;-74
2023/05/30 13:02:13;;;;;;;3.60;1.50;;;17.30;99.90;;;;;;5090707;28;20477;-74
2023/05/30 13:04:40;;;;;;;3.97;1.63;;;;;;;;;;5064516;28;20877;-73
2023/05/30 13:07:09;;;;;;;3.35;1.70;;;17.00;99.90;;;;;;5081773;28;20421;-73
2023/05/30 13:09:36;;;;;;;2.70;1.60;;;17.10;99.90;;;;;;5082270;28;20401;-75
2023/05/30 13:12:04;;;;;;;2.05;1.40;;;16.90;99.90;;;;;;5100433;27;20766;-74
2023/05/30 13:14:31;;;;;;;3.90;1.77;;;;;;;;;;5085771;28;20415;-73
2023/05/30 13:16:57;;;;;;;2.20;1.50;;;16.40;99.90;;;;;;5088859;27;20743;-74
2023/05/30 13:19:22;;;;;;;2.67;1.70;;;16.60;99.90;;;;;;5069929;27;20429;-74
2023/05/30 13:21:49;;;;;;;4.00;1.53;;;;;;;;;;5099282;27;20514;-73
2023/05/30 13:24:15;;;;;;;3.13;1.52;;;;;;;;;;5082763;27;20434;-74
2023/05/30 13:26:41;;;;;;;2.20;1.30;;;;;;;;;;5079227;28;20431;-73
2023/05/30 13:29:08;;;;;;;2.15;1.30;;;16.40;99.90;;;;;;5107458;27;20437;-74
2023/05/30 13:31:34;;;;;;;2.57;1.47;;;;;;;;;;5090986;27;20412;-74
2023/05/30 13:34:01;;;;;;;3.20;1.42;;;16.50;99.90;;;;;;5100912;28;20408;-74
2023/05/30 13:36:27;;;;;;;2.30;1.25;;;;;;;;;;5100294;27;20934;-75
2023/05/30 13:38:53;;;;;;;3.70;1.80;;;16.40;99.90;;;;;;5106948;27;20918;-74
2023/05/30 13:41:25;;;;;;;3.30;1.60;;;16.30;99.90;;;;;;5103049;27;20418;-74
2023/05/30 13:43:52;;;;;;;2.92;1.50;;;16.40;99.90;;;;;;5080678;27;20516;-73
2023/05/30 13:46:18;;;;;;;5.35;1.55;;;;;;;;;;5105978;27;20454;-74
2023/05/30 13:48:44;;;;;;;2.63;1.38;;;;;;;;;;5097896;27;20416;-74
2023/05/30 13:51:10;;;;;;;2.93;1.43;;;;;;;;;;5097381;28;20495;-75
2023/05/30 13:53:36;;;;;;;3.78;1.60;;;16.30;99.90;;;;;;5092229;27;20775;-75
2023/05/30 13:56:02;;;;;;;3.15;1.70;;;16.00;99.90;;;;;;5097379;27;20415;-75
2023/05/30 13:58:28;;;;;;;2.90;1.60;;;16.20;99.90;;;;;;5089214;27;20410;-74
2023/05/30 14:00:54;;;;;;;2.40;1.40;;;16.30;99.90;;;;;;5093028;27;20416;-74
2023/05/30 14:03:20;;;;;;;3.80;1.52;;;;;;;;;;5102570;27;20420;-75
2023/05/30 14:05:46;;;;;;;3.03;1.40;;;16.30;99.90;;;;;;5102882;27;20482;-74